• Join FlightAware (Why Join?)
  • Login
  • US Flag 
11:54AM EDT


 

Airport Tracker/Info


-or-


 

Live Flight TrackerFlight Track Log ✈ SVA1481 ✈ 06-May-2014 ✈ OERK / RUH - OEPA / AQI

Flight Track Log - Related Links

Times and Time Zones

All times are in EDT time to prevent confusion due to time zone crossing. See the SVA1481 flight status page for this flight to view local times or setup timezone preferences in your user account.

Time Position Orientation Groundspeed Altitude Reporting Facility
EDT Latitude Longitude Course Direction KTS MPH feet Rate Location/Type
11:32PM 25.3433 46.6350 351° North  Level Estimated
11:33PM 25.4397 46.6189 351° North  Level Estimated
11:34PM 25.5361 46.6029 351° North  Level Estimated
11:35PM 25.6325 46.5868 351° North  Level Estimated
11:36PM 25.7289 46.5707 351° North  Level Estimated
11:37PM 25.8253 46.5546 351° North  Level Estimated
11:38PM 25.9217 46.5385 351° North  Level Estimated
11:39PM 26.0181 46.5223 351° North  Level Estimated
11:40PM 26.1145 46.5061 351° North  Level Estimated
11:41PM 26.2109 46.4899 351° North  Level Estimated
11:42PM 26.3073 46.4736 351° North  Level Estimated
11:43PM 26.4037 46.4573 351° North  Level Estimated
11:44PM 26.5000 46.4410 351° North  Level Estimated
11:45PM 26.5964 46.4247 351° North  Level Estimated
11:46PM 26.6928 46.4083 351° North  Level Estimated
11:47PM 26.7892 46.3919 351° North  Level Estimated
11:48PM 26.8856 46.3755 351° North  Level Estimated
11:49PM 26.9819 46.3591 351° North  Level Estimated
11:50PM 27.0783 46.3426 351° North  Level Estimated
11:51PM 27.1747 46.3261 351° North  Level Estimated
11:52PM 27.2711 46.3096 351° North  Level Estimated
11:53PM 27.3674 46.2930 351° North  Level Estimated
11:54PM 27.4638 46.2764 351° North  Level Estimated
11:55PM 27.5602 46.2598 351° North  Level Estimated
11:56PM 27.6565 46.2432 351° North  Level Estimated
11:57PM 27.7529 46.2265 351° North  Level Estimated
11:58PM 27.8493 46.2098 351° North  Level Estimated
11:59PM 27.9456 46.1930 351° North  Level Estimated
12:00AM 28.0420 46.1763 351° North  Level Estimated
12:01AM 28.1383 46.1595 351° North  Level Estimated
12:02AM 28.2347 46.1427 351° North  Level Estimated
12:03AM 28.3310 46.1258 351° North  Level Estimated
12:04AM 28.3352 46.1251 351° North  Level Estimated
12:05AM 28.3352 46.1251 North  Level Estimated
12:06AM 28.3352 46.1251 North  Level Estimated
12:07AM 28.3352 46.1251 North  Level Estimated
12:08AM 28.3352 46.1251 North  Level Estimated
12:09AM 28.3352 46.1251 North  Level Estimated
12:10AM 28.3352 46.1251 North  Level Estimated